Tiempo atmosférico en la estación meteorológica de Alhama de Murcia, Murcia (157 m.)



Fecha
DESCASC
Temp. máxima en grados centígrados (hora)
DESCASC
Temp. mínima en grados centígrados (hora)
DESCASC
Temp. media en grados centígrados
DESCASC
Racha de viento máxima en m/sg (hora)
DESCASC
Velocidad máxima media en intervalos de 10 minutos(hora)
DESCASC
Precipitaciones diarias en mm
DESCASC
Precipitaciones de 00:00 a 06:00 en mm
DESCASC
Precipitaciones de 06:00 a 12:00 en mm
DESCASC
Precipitaciones de 12:00 a 18:00 en mm
DESCASC
Precipitaciones de 18:00 a 24:00 en mm
DESCASC
18-01-2018 16.4 (16:00) 5 (08:40) 10.7 6.39 (13:10) 4.17 (12:50) 0 0 0 0 0
17-01-2018 20.7 (15:40) 4.7 (02:10) 12.7 8.33 (14:30) 5 (14:30) 0 0 0 0 0
16-01-2018 19.7 (16:10) 1.5 (07:20) 10.6 5.83 (12:40) 3.61 (11:30) 0.2 0 0.2 0 0
15-01-2018 12.7 (16:40) 4.4 (22:50) 8.5 6.39 (05:50) 3.33 (07:30) 6.6 4.4 1.6 0.6 0
14-01-2018 13.3 (15:00) 1.5 (00:00) 7.4 5 (18:50) 3.33 (18:50) 4.8 0 0 0 4.8
13-01-2018 13.1 (15:30) 0.2 (00:00) 6.7 6.94 (15:30) 3.61 (15:30) 0 0 0 0 0
12-01-2018 17.6 (16:40) 2.4 (00:00) 10 8.89 (06:40) 5 (12:20) 0 0 0 0 0
11-01-2018 15 (11:50) 9.1 (00:00) 12.1 12.5 (14:00) 6.67 (15:40) 0 0 0 0 0
10-01-2018 18 (15:50) 5.7 (00:00) 11.8 11.11 (21:00) 6.67 (21:00) 3 3 0 0 0
09-01-2018 14.4 (14:20) -0.7 (-00:0) 6.8 5.83 (14:30) 3.61 (14:30) 0 0 0 0 0
08-01-2018 14 (15:30) -0.6 (-00:0) 6.7 4.44 (15:30) 2.78 (20:00) 0 0 0 0 0
07-01-2018 13.8 (14:50) 1.6 (00:00) 7.7 9.17 (16:40) 5 (16:10) 0.4 0.4 0 0 0
06-01-2018 14.6 (14:40) 2.7 (00:00) 8.7 12.78 (15:50) 6.67 (17:00) 1.6 0 0 1.2 0.4
05-01-2018 20.2 (16:20) 6.6 (00:00) 13.4 7.22 (04:10) 3.61 (04:20) 0 0 0 0 0
04-01-2018 23.9 (16:20) 11.9 (23:59) 17.9 8.06 (09:00) 4.44 (02:00) 0 0 0 0 0
03-01-2018 23.2 (15:20) 12 (00:00) 17.6 8.61 (08:30) 5.56 (08:30) 0 0 0 0 0
02-01-2018 21.2 (15:40) 4.8 (00:00) 13 7.5 (15:10) 4.72 (15:20) 0 0 0 0 0
01-01-2018 20.1 (15:10) 6.9 (00:00) 13.5 11.94 (00:10) 5.83 (00:10) 0 0 0 0 0
31-12-2017 17.3 (19:50) 6.7 (00:00) 12 8.33 (23:59) 4.17 (23:59) 0 0 0 0 0
30-12-2017 22.1 (15:30) 7.1 (00:00) 14.6 5.28 (12:40) 3.06 (12:10) 0 0 0 0 0
29-12-2017 23.1 (15:20) 9 (00:00) 16.1 7.78 (17:40) 4.44 (17:40) 0 0 0 0 0
28-12-2017 22.6 (16:20) 7.4 (00:00) 15 6.94 (11:20) 3.89 (11:30) 0 0 0 0 0
27-12-2017 18.5 (16:10) 8.5 (00:00) 13.5 12.78 (16:30) 7.5 (03:50) 0 0 0 0 0
26-12-2017 20.1 (13:50) 5.3 (00:00) 12.7 10.28 (11:20) 6.11 (11:20) 0 0 0 0 0
25-12-2017 17.6 (16:10) 1.9 (00:00) 9.8 6.67 (17:30) 3.89 (17:30) 0 0 0 0 0
24-12-2017 14.3 (15:00) 4.5 (00:00) 9.4 3.89 (17:20) 2.5 (17:20) 0 0 0 0 0

Gráficas

Temp. máximas Temp. mínimas Temp. medias Precipitaciones Rachas de viento máximas Velocidades máximas media en intervalos de 10 minutos

Datos horarios

Fecha y hora oficial Temperatura (ºC) Velocidad del viento (km/h) Dirección del viento Racha (km/h) Dirección de racha Precipitación (mm) Presión (hPa) Tendencia (hPa) Humedad (%)
2018-01-22 23:00:00 15.3 5 Nordeste 13 Este 0 -- -- 52
2018-01-22 22:00:00 11.1 2 Sudeste 11 Sudoeste 0 -- -- 84
2018-01-22 21:00:00 12.1 8 Sur 11 Sudoeste 0 -- -- 78
2018-01-22 20:00:00 13.3 11 Sudoeste 14 Sudoeste 0 -- -- 68
2018-01-22 19:00:00 15.1 10 Sudoeste 12 Sudoeste 0 -- -- 63
2018-01-22 18:00:00 20.2 7 Sudoeste 13 Sudoeste 0 -- -- 48
2018-01-22 17:00:00 24.1 4 Nordeste 13 Noroeste 0 -- -- 28
2018-01-22 16:00:00 25 5 Noroeste 24 Norte 0 -- -- 27
2018-01-22 15:00:00 24.8 13 Nordeste 21 Norte 0 -- -- 26
2018-01-22 14:00:00 23.6 5 Norte 12 Nordeste 0 -- -- 31
2018-01-22 13:00:00 21.6 5 Nordeste 13 Nordeste 0 -- -- 37
2018-01-22 12:00:00 18.9 5 Nordeste 8 Norte 0 -- -- 46
2018-01-22 11:00:00 16 4 Sur 9 Oeste 0 -- -- 54
2018-01-22 10:00:00 12.4 3 Oeste 14 Sur 0 -- -- 67
2018-01-22 09:00:00 9.2 4 Sur 6 Sudoeste 0 -- -- 81
2018-01-22 08:00:00 11.1 0 Calma 8 Sudoeste 0 -- -- 72
2018-01-22 07:00:00 14.6 5 Nordeste 18 Nordeste 0 -- -- 58
2018-01-22 06:00:00 13.9 7 Nordeste 15 Nordeste 0 -- -- 60
2018-01-22 05:00:00 15.9 9 Nordeste 21 Este 0 -- -- 54
2018-01-22 04:00:00 16.3 11 Este 19 Norte 0 -- -- 52
2018-01-22 03:00:00 16.6 8 Este 20 Este 0 -- -- 51
2018-01-22 02:00:00 17.2 10 Nordeste 19 Norte 0 -- -- 49
2018-01-22 01:00:00 17.9 6 Este 30 Nordeste 0 -- -- 47
2018-01-22 00:00:00 18 10 Este 34 Este 0 -- -- 47
2018-01-21 23:00:00 17.4 14 Este 22 Este 0 -- -- 49
2018-01-21 22:00:00 17.7 10 Nordeste 32 Nordeste 0 -- -- 48
2018-01-21 21:00:00 17.6 12 Nordeste 18 Este 0 -- -- 49
2018-01-21 20:00:00 17.6 9 Nordeste 18 Este 0 -- -- 50
2018-01-21 19:00:00 17 4 Norte 14 Norte 0 -- -- 54
2018-01-21 18:00:00 20.6 9 Norte 22 Norte 0 -- -- 41
2018-01-21 17:00:00 21.8 15 Norte 35 Norte 0 -- -- 37
2018-01-21 16:00:00 22.5 19 Norte 34 Norte 0 -- -- 35
2018-01-21 15:00:00 22.9 21 Norte 36 Norte 0 -- -- 33
2018-01-21 14:00:00 22.4 21 Norte 36 Nordeste 0 -- -- 34
2018-01-21 13:00:00 21.1 19 Norte 32 Norte 0 -- -- 37
2018-01-21 12:00:00 19.3 13 Este 29 Este 0 -- -- 40
2018-01-21 11:00:00 18.5 13 Este 31 Este 0 -- -- 41
2018-01-21 10:00:00 16.1 14 Nordeste 33 Nordeste 0 -- -- 45
2018-01-21 09:00:00 14.9 14 Nordeste 27 Nordeste 0 -- -- 46
2018-01-21 08:00:00 15 17 Este 28 Este 0 -- -- 43
2018-01-21 07:00:00 13.6 14 Nordeste 23 Nordeste 0 -- -- 44
2018-01-21 06:00:00 13.8 11 Este 21 Nordeste 0 -- -- 42
2018-01-21 05:00:00 14 10 Nordeste 26 Nordeste 0 -- -- 42
2018-01-21 04:00:00 14.8 17 Este 29 Este 0 -- -- 40
2018-01-21 03:00:00 14.3 12 Nordeste 26 Este 0 -- -- 40
2018-01-21 02:00:00 15.5 13 Nordeste 27 Este 0 -- -- 35
2018-01-21 01:00:00 15.4 17 Este 28 Nordeste 0 -- -- 36
2018-01-21 00:00:00 13.1 7 Nordeste 23 Este 0 -- -- 48
2018-01-20 23:00:00 9.5 6 Nordeste 21 Noroeste 0 -- -- 80
2018-01-20 22:00:00 8.8 5 Sudoeste 10 Sudeste 0 -- -- 87
2018-01-20 21:00:00 10.2 9 Sur 13 Sur 0 -- -- 81
2018-01-20 20:00:00 11.1 8 Sur 17 Sudoeste 0 -- -- 79
2018-01-20 19:00:00 13.1 9 Sudoeste 20 Sudoeste 0 -- -- 71
2018-01-20 18:00:00 16 15 Sudoeste 24 Sudoeste 0 -- -- 57
2018-01-20 17:00:00 19.8 9 Sudoeste 22 Sudoeste 0 -- -- 41
2018-01-20 16:00:00 21.5 7 Sudoeste 14 Sur 0 -- -- 30
2018-01-20 15:00:00 21.2 7 Sudoeste 15 Sudoeste 0 -- -- 33
2018-01-20 14:00:00 20 7 Norte 18 Este 0 -- -- 31
2018-01-20 13:00:00 18.7 8 Nordeste 24 Nordeste 0 -- -- 37
2018-01-20 12:00:00 17.3 10 Este 17 Este 0 -- -- 41
2018-01-20 11:00:00 15.1 4 Norte 17 Noroeste 0 -- -- 47
2018-01-20 10:00:00 13.3 5 Norte 12 Noroeste 0 -- -- 55
2018-01-20 09:00:00 9.9 4 Sudeste 9 Nordeste 0 -- -- 65
2018-01-20 08:00:00 12 5 Nordeste 23 Este 0 -- -- 56
2018-01-20 07:00:00 11.9 12 Este 21 Este 0 -- -- 56
2018-01-20 06:00:00 12.1 7 Norte 20 Noroeste 0 -- -- 55
2018-01-20 05:00:00 11.8 5 Noroeste 12 Noroeste 0 -- -- 56
2018-01-20 04:00:00 12.1 6 Nordeste 16 Este 0 -- -- 56
2018-01-20 03:00:00 11.7 8 Este 22 Nordeste 0 -- -- 59
2018-01-20 02:00:00 13.1 15 Nordeste 28 Nordeste 0 -- -- 54
2018-01-20 01:00:00 13.8 11 Nordeste 23 Este 0 -- -- 51
2018-01-20 00:00:00 6.5 2 Nordeste 12 Oeste 0 -- -- 94
2018-01-19 23:00:00 7 4 Sudoeste 11 Sudoeste 0 -- -- 94
2018-01-19 22:00:00 7.2 5 Sudoeste 15 Sur 0 -- -- 93
2018-01-19 21:00:00 7.2 6 Sudoeste 12 Sudoeste 0 -- -- 92
2018-01-19 20:00:00 8.2 6 Sudoeste 10 Sudeste 0 -- -- 82
2018-01-19 19:00:00 10.9 5 Sur 10 Sur 0 -- -- 67
2018-01-19 18:00:00 14.7 6 Este 10 Este 0 -- -- 52
2018-01-19 17:00:00 15.5 5 Nordeste 17 Nordeste 0 -- -- 49
2018-01-19 16:00:00 15.9 12 Este 22 Este 0 -- -- 48
2018-01-19 15:00:00 15.2 6 Nordeste 10 Nordeste 0 -- -- 60
2018-01-19 14:00:00 13.5 3 Nordeste 9 Nordeste 0 -- -- 70
2018-01-19 13:00:00 12.4 6 Nordeste 13 Nordeste 0 -- -- 75
2018-01-19 12:00:00 11.7 7 Nordeste 10 Nordeste 0 -- -- 78
2018-01-19 11:00:00 10.9 5 Nordeste 7 Norte 0 -- -- 82
2018-01-19 10:00:00 11 2 Este 12 Sur 0 -- -- 79
2018-01-19 09:00:00 10.3 5 Sudoeste 17 Sudoeste 0 -- -- 82
2018-01-19 08:00:00 11.7 8 Este 17 Este 0 -- -- 71
2018-01-19 07:00:00 10.8 9 Este 18 Este 0 -- -- 78
2018-01-19 06:00:00 10.3 6 Nordeste 15 Nordeste 0 -- -- 82
2018-01-19 05:00:00 10.2 8 Nordeste 18 Este 0 -- -- 85
2018-01-19 04:00:00 10.8 10 Nordeste 16 Este 0 -- -- 91
2018-01-19 03:00:00 8.9 7 Nordeste 10 Este 0 -- -- 99
2018-01-19 02:00:00 9.2 4 Nordeste 9 Nordeste 0 -- -- 98
2018-01-19 01:00:00 9.3 4 Nordeste 5 Nordeste 0 -- -- 97
2018-01-19 00:00:00 9.3 2 Norte 8 Nordeste 0 -- -- 96
2018-01-18 23:00:00 9.7 6 Nordeste 8 Este 0 -- -- 95
2018-01-18 22:00:00 9.9 3 Nordeste 13 Nordeste 0 -- -- 92
2018-01-18 21:00:00 9.8 4 Nordeste 10 Sur 0 -- -- 92
2018-01-18 20:00:00 10.5 3 Sur 11 Nordeste 0 -- -- 86
2018-01-18 19:00:00 11.6 9 Nordeste 15 Nordeste 0 -- -- 82
2018-01-18 18:00:00 12.9 8 Nordeste 16 Este 0 -- -- 71
2018-01-18 17:00:00 15.1 6 Nordeste 17 Nordeste 0 -- -- 61
2018-01-18 16:00:00 16.4 10 Nordeste 21 Nordeste 0 -- -- 53
2018-01-18 15:00:00 15.8 12 Nordeste 21 Nordeste 0 -- -- 54
2018-01-18 14:00:00 15.6 12 Nordeste 23 Norte 0 -- -- 55
2018-01-18 13:00:00 14.9 13 Nordeste 21 Norte 0 -- -- 56
2018-01-18 12:00:00 13.9 10 Norte 16 Nordeste 0 -- -- 67
2018-01-18 11:00:00 12.8 10 Nordeste 17 Nordeste 0 -- -- 76
2018-01-18 10:00:00 8.6 7 Nordeste 10 Nordeste 0 -- -- 100
2018-01-18 09:00:00 5.2 5 Nordeste 8 Nordeste 0 -- -- 98
2018-01-18 08:00:00 5.9 5 Nordeste 11 Nordeste 0 -- -- 96
2018-01-18 07:00:00 7 3 Nordeste 8 Nordeste 0 -- -- 92
2018-01-18 06:00:00 7.4 8 Nordeste 10 Nordeste 0 -- -- 96
2018-01-18 05:00:00 5.7 0 Calma 4 Nordeste 0 -- -- 98
2018-01-18 04:00:00 5.1 0 Calma 2 Este 0 -- -- 96
2018-01-18 03:00:00 5.2 0 Calma 2 Oeste 0 -- -- 94
2018-01-18 02:00:00 6.2 0 Calma 11 Nordeste 0 -- -- 90
2018-01-18 01:00:00 7.4 7 Nordeste 10 Nordeste 0 -- -- 89
2018-01-18 00:00:00 8.6 7 Nordeste 10 Este 0 -- -- 83
2018-01-17 23:00:00 7.9 5 Este 9 Este 0 -- -- 87
2018-01-17 22:00:00 9.6 8 Nordeste 9 Nordeste 0 -- -- 77
2018-01-17 21:00:00 11.1 6 Este 15 Nordeste 0 -- -- 71
2018-01-17 20:00:00 14.5 12 Nordeste 21 Nordeste 0 -- -- 51
2018-01-17 19:00:00 15.5 9 Este 18 Este 0 -- -- 46
2018-01-17 18:00:00 16.9 12 Nordeste 20 Nordeste 0 -- -- 43
2018-01-17 17:00:00 19.7 14 Nordeste 25 Norte 0 -- -- 37
2018-01-17 16:00:00 20.7 16 Norte 29 Norte 0 -- -- 32
2018-01-17 15:00:00 20.4 15 Norte 30 Norte 0 -- -- 38
2018-01-17 14:00:00 19.7 17 Norte 27 Norte 0 -- -- 42
2018-01-17 13:00:00 18.4 13 Norte 22 Norte 0 -- -- 44
2018-01-17 12:00:00 17.5 5 Nordeste 16 Nordeste 0 -- -- 46
2018-01-17 11:00:00 15.7 4 Norte 19 Nordeste 0 -- -- 51
2018-01-17 10:00:00 13.7 13 Nordeste 22 Nordeste 0 -- -- 56
2018-01-17 09:00:00 12 10 Este 22 Nordeste 0 -- -- 60
2018-01-17 08:00:00 12.1 12 Nordeste 21 Norte 0 -- -- 62
2018-01-17 07:00:00 11 9 Nordeste 19 Norte 0 -- -- 65
2018-01-17 06:00:00 11.6 5 Norte 19 Noroeste 0 -- -- 64
2018-01-17 05:00:00 7.7 5 Nordeste 20 Nordeste 0 -- -- 82
2018-01-17 04:00:00 6.6 6 Nordeste 12 Este 0 -- -- 90
2018-01-17 03:00:00 5.2 4 Sudoeste 12 Sur 0 -- -- 95
2018-01-17 02:00:00 4.9 4 Sudoeste 13 Sudoeste 0 -- -- 94
2018-01-17 01:00:00 6.3 8 Sudoeste 12 Sur 0 -- -- 94
2018-01-17 00:00:00 7.7 8 Sur 11 Sur 0 -- -- 94
2018-01-16 23:00:00 7.6 6 Sur 13 Oeste 0 -- -- 92
2018-01-16 22:00:00 8.9 5 Sudoeste 20 Oeste 0 -- -- 87
2018-01-16 21:00:00 9.4 6 Sudoeste 14 Sur 0 -- -- 88
2018-01-16 20:00:00 10.1 9 Sur 14 Sur 0 -- -- 86
2018-01-16 19:00:00 10.8 10 Sur 14 Sur 0 -- -- 81
2018-01-16 18:00:00 14.4 7 Sudoeste 17 Sudoeste 0 -- -- 64
2018-01-16 17:00:00 17.1 9 Sudoeste 19 Sudoeste 0 -- -- 50
2018-01-16 16:00:00 19.5 7 Nordeste 12 Nordeste 0 -- -- 39
2018-01-16 15:00:00 18.8 4 Oeste 13 Sudoeste 0 -- -- 42
2018-01-16 14:00:00 17.5 8 Sudoeste 21 Sudoeste 0 -- -- 46
2018-01-16 13:00:00 15.7 10 Sudoeste 21 Sudoeste 0 -- -- 54
2018-01-16 12:00:00 12.4 9 Sudoeste 19 Oeste 0.2 -- -- 60
2018-01-16 11:00:00 9.4 10 Sudoeste 16 Sudoeste 0 -- -- 71
2018-01-16 10:00:00 5.6 3 Sur 15 Sudoeste 0 -- -- 86
2018-01-16 09:00:00 3.3 3 Sudeste 14 Sudoeste 0 -- -- 91
2018-01-16 08:00:00 2.8 8 Oeste 13 Sudoeste 0 -- -- 96
2018-01-16 07:00:00 1.6 2 Sur 10 Sudoeste 0 -- -- 97
2018-01-16 06:00:00 1.9 4 Sudoeste 7 Sur 0 -- -- 96
2018-01-16 05:00:00 2.7 4 Sudoeste 14 Oeste 0 -- -- 93
2018-01-16 04:00:00 3.3 6 Sudoeste 13 Sudoeste 0 -- -- 93
2018-01-16 03:00:00 3.1 6 Sudoeste 13 Sudoeste 0 -- -- 95
2018-01-16 02:00:00 3.7 6 Sudoeste 12 Sudoeste 0 -- -- 91
2018-01-16 01:00:00 3.9 6 Sudoeste 10 Sudoeste 0 -- -- 94
2018-01-16 00:00:00 4.6 8 Sudoeste 12 Sudoeste 0 -- -- 94
2018-01-15 23:00:00 4.7 7 Sudoeste 10 Sudoeste 0 -- -- 96
2018-01-15 22:00:00 6.2 5 Sudoeste 14 Sur 0 -- -- 87
2018-01-15 21:00:00 6.4 5 Sudoeste 12 Sudeste 0 -- -- 88
2018-01-15 20:00:00 7.2 7 Sudeste 10 Sudeste 0 -- -- 86
2018-01-15 19:00:00 8.7 4 Este 10 Este 0 -- -- 82
2018-01-15 18:00:00 11.7 4 Nordeste 9 Norte 0 -- -- 74
2018-01-15 17:00:00 12.6 3 Este 11 Este 0 -- -- 65
2018-01-15 16:00:00 11.7 3 Nordeste 14 Este 0 -- -- 70
2018-01-15 15:00:00 10.6 7 Este 17 Nordeste 0.6 -- -- 82
2018-01-15 14:00:00 10.9 6 Nordeste 13 Nordeste 0 -- -- 73
2018-01-15 13:00:00 9.9 7 Nordeste 17 Este 0 -- -- 78
2018-01-15 12:00:00 9.8 7 Nordeste 18 Nordeste 0 -- -- 78
2018-01-15 11:00:00 8.2 6 Nordeste 20 Nordeste 0.4 -- -- 86
2018-01-15 10:00:00 7.3 8 Nordeste 17 Nordeste 0.2 -- -- 86
2018-01-15 09:00:00 6.6 6 Nordeste 21 Este 0.4 -- -- 89
2018-01-15 08:00:00 6.6 8 Nordeste 21 Nordeste 0.2 -- -- 87
2018-01-15 07:00:00 5.9 10 Nordeste 19 Nordeste 0.4 -- -- 92
2018-01-15 06:00:00 6.2 12 Nordeste 23 Norte 1.4 -- -- 90
2018-01-15 05:00:00 6.4 3 Nordeste 13 Nordeste 1.2 -- -- 92
2018-01-15 04:00:00 6.7 5 Nordeste 14 Este 1 -- -- 91
2018-01-15 03:00:00 7.2 6 Este 13 Este 0.6 -- -- 89
2018-01-15 02:00:00 7.5 0 Calma 8 Este 0 -- -- 88
2018-01-15 01:00:00 7.6 0 Calma 7 Nordeste 0.2 -- -- 87
2018-01-15 00:00:00 7.7 3 Sudeste 15 Este 0.6 -- -- 89
2018-01-14 23:00:00 7.7 4 Este 13 Nordeste 0.4 -- -- 91
2018-01-14 22:00:00 8.1 3 Este 8 Este 0 -- -- 88
2018-01-14 21:00:00 7.9 2 Este 9 Este 0.2 -- -- 91
2018-01-14 20:00:00 8 3 Este 8 Este 1.8 -- -- 91
2018-01-14 19:00:00 8.7 6 Oeste 18 Sudoeste 1.8 -- -- 86
2018-01-14 18:00:00 10.6 3 Sur 4 Sur 0 -- -- 76
2018-01-14 17:00:00 12.2 0 Calma 7 Norte 0 -- -- 60
2018-01-14 16:00:00 12.8 4 Nordeste 10 Nordeste 0 -- -- 51
2018-01-14 15:00:00 13.3 5 Nordeste 12 Este 0 -- -- 48
2018-01-14 14:00:00 12.9 3 Nordeste 10 Norte 0 -- -- 48
2018-01-14 13:00:00 12.3 7 Norte 12 Nordeste 0 -- -- 53
2018-01-14 12:00:00 11.6 3 Norte 8 Nordeste 0 -- -- 54
2018-01-14 11:00:00 10.3 3 Oeste 9 Sudoeste 0 -- -- 63
2018-01-14 10:00:00 6.1 3 Sudoeste 8 Sudoeste 0 -- -- 80
2018-01-14 09:00:00 2.3 5 Sur 10 Nordeste 0 -- -- 95
2018-01-14 08:00:00 1.7 4 Sudoeste 7 Sudoeste 0 -- -- 93
2018-01-14 07:00:00 2.1 8 Sudoeste 14 Oeste 0 -- -- 90
2018-01-14 06:00:00 2.3 6 Sur 10 Sudeste 0 -- -- 91
2018-01-14 05:00:00 2.8 3 Sudoeste 11 Sur 0 -- -- 91
2018-01-14 04:00:00 3.6 0 Calma 8 Sur 0 -- -- 89
2018-01-14 03:00:00 3.8 3 Este 8 Sudoeste 0 -- -- 94
2018-01-14 02:00:00 4.2 6 Sudoeste 9 Sudoeste 0 -- -- 92
2018-01-14 01:00:00 5.5 8 Sur 18 Sur 0 -- -- 89
2018-01-14 00:00:00 4.8 9 Sudoeste 13 Oeste 0 -- -- 97
2018-01-13 23:00:00 5.3 3 Sur 8 Sudeste 0 -- -- 95
2018-01-13 22:00:00 6.6 3 Sur 13 Sudoeste 0 -- -- 94
2018-01-13 21:00:00 8 7 Sudoeste 14 Sudoeste 0 -- -- 88
2018-01-13 20:00:00 10.5 7 Oeste 12 Sur 0 -- -- 75
2018-01-13 19:00:00 10.7 8 Sur 14 Sur 0 -- -- 72
2018-01-13 18:00:00 10.7 8 Sur 11 Sur 0 -- -- 76
2018-01-13 17:00:00 12.5 6 Sudeste 16 Sudeste 0 -- -- 57
2018-01-13 16:00:00 13 9 Sur 25 Sudoeste 0 -- -- 62
2018-01-13 15:00:00 11.7 3 Este 14 Nordeste 0 -- -- 58
2018-01-13 14:00:00 12.1 8 Nordeste 15 Nordeste 0 -- -- 54
2018-01-13 13:00:00 11.4 4 Norte 10 Noroeste 0 -- -- 58
2018-01-13 12:00:00 10.3 3 Sudoeste 6 Sudoeste 0 -- -- 55
2018-01-13 11:00:00 6.5 2 Nordeste 5 Sur 0 -- -- 72
2018-01-13 10:00:00 2.8 0 Calma 3 Oeste 0 -- -- 93
2018-01-13 09:00:00 1.3 0 Calma 6 Oeste 0 -- -- 98
2018-01-13 08:00:00 0.6 2 Este 6 Sur 0 -- -- 98
2018-01-13 07:00:00 0.2 2 Sur 9 Sudoeste 0 -- -- 96
2018-01-13 06:00:00 0.9 2 Oeste 4 Oeste 0 -- -- 97
2018-01-13 05:00:00 1.1 0 Calma 7 Sur 0 -- -- 95
2018-01-13 04:00:00 1.6 5 Sur 6 Sur 0 -- -- 95
2018-01-13 03:00:00 2.2 5 Sur 7 Sur 0 -- -- 89
2018-01-13 02:00:00 3.4 4 Nordeste 6 Nordeste 0 -- -- 90
2018-01-13 01:00:00 4.5 2 Oeste 8 Sur 0 -- -- 86
2018-01-13 00:00:00 5.7 8 Sur 12 Sur 0 -- -- 83
2018-01-12 23:00:00 6.5 0 Calma 10 Este 0 -- -- 81
2018-01-12 22:00:00 6.2 4 Este 5 Nordeste 0 -- -- 87
2018-01-12 21:00:00 6.1 3 Sur 4 Sur 0 -- -- 86
2018-01-12 20:00:00 6.9 0 Calma 8 Sudoeste 0 -- -- 78
2018-01-12 19:00:00 9.2 0 Calma 12 Sur 0 -- -- 62
2018-01-12 18:00:00 12.9 8 Sur 16 Sudoeste 0 -- -- 48
2018-01-12 17:00:00 15.7 13 Sur 22 Sur 0 -- -- 39
2018-01-12 16:00:00 17.2 0 Calma 20 Norte 0 -- -- 31
2018-01-12 15:00:00 16.1 10 Norte 23 Norte 0 -- -- 33
2018-01-12 14:00:00 15.1 11 Norte 24 Norte 0 -- -- 35
2018-01-12 13:00:00 14.1 12 Norte 29 Noroeste 0 -- -- 39
2018-01-12 12:00:00 12.8 11 Norte 28 Noroeste 0 -- -- 42
2018-01-12 11:00:00 11.6 15 Norte 28 Norte 0 -- -- 44
2018-01-12 10:00:00 10.2 10 Nordeste 18 Norte 0 -- -- 47
2018-01-12 09:00:00 8.6 13 Nordeste 25 Norte 0 -- -- 50
2018-01-12 08:00:00 8.3 16 Nordeste 29 Este 0 -- -- 50
2018-01-12 07:00:00 7.6 13 Nordeste 32 Nordeste 0 -- -- 54
2018-01-12 06:00:00 4.9 7 Este 19 Sudeste 0 -- -- 65
2018-01-12 05:00:00 2.5 2 Este 13 Oeste 0 -- -- 80
2018-01-12 04:00:00 2.8 6 Sur 13 Sudeste 0 -- -- 79
2018-01-12 03:00:00 3.5 4 Sur 11 Este 0 -- -- 76
2018-01-12 02:00:00 5.6 5 Nordeste 9 Este 0 -- -- 63
2018-01-12 01:00:00 8.7 0 Calma 18 Nordeste 0 -- -- 52
2018-01-12 00:00:00 9.6 8 Este 26 Este 0 -- -- 45
2018-01-11 23:00:00 9.9 12 Este 23 Este 0 -- -- 47
2018-01-11 22:00:00 10.9 11 Norte 21 Nordeste 0 -- -- 45
2018-01-11 21:00:00 10.6 8 Este 24 Este 0 -- -- 46
2018-01-11 20:00:00 9.9 4 Nordeste 18 Este 0 -- -- 51
2018-01-11 19:00:00 10.6 10 Este 31 Noroeste 0 -- -- 49
2018-01-11 18:00:00 12 12 Noroeste 31 Oeste 0 -- -- 43
2018-01-11 17:00:00 12.7 10 Norte 28 Noroeste 0 -- -- 47
2018-01-11 16:00:00 13 14 Norte 45 Noroeste 0 -- -- 47
2018-01-11 15:00:00 14 14 Noroeste 45 Noroeste 0 -- -- 40
2018-01-11 14:00:00 13.5 19 Noroeste 45 Oeste 0 -- -- 44
2018-01-11 13:00:00 14.4 20 Noroeste 32 Noroeste 0 -- -- 41
2018-01-11 12:00:00 15 13 Noroeste 36 Noroeste 0 -- -- 36
2018-01-11 11:00:00 14.1 15 Noroeste 35 Noroeste 0 -- -- 39
2018-01-11 10:00:00 11.6 4 Norte 13 Este 0 -- -- 43
2018-01-11 09:00:00 10.3 3 Oeste 26 Oeste 0 -- -- 45
2018-01-11 08:00:00 11 10 Noroeste 33 Noroeste 0 -- -- 42
2018-01-11 07:00:00 10 6 Norte 18 Noroeste 0 -- -- 45
2018-01-11 06:00:00 9.5 9 Nordeste 20 Este 0 -- -- 50
2018-01-11 05:00:00 10.7 13 Este 23 Este 0 -- -- 49
2018-01-11 04:00:00 12 6 Sudoeste 20 Sudoeste 0 -- -- 46
2018-01-11 03:00:00 12.2 6 Este 17 Nordeste 0 -- -- 46
2018-01-11 02:00:00 12.4 6 Norte 18 Noroeste 0 -- -- 50
2018-01-11 01:00:00 11.4 5 Sur 16 Sur 0 -- -- 69
2018-01-11 00:00:00 13.7 12 Sudoeste 40 Sur 0 -- -- 57
2018-01-10 23:00:00 12.7 16 Sudoeste 28 Sudoeste 0 -- -- 53
2018-01-10 22:00:00 12.7 12 Sur 37 Sudoeste 0 -- -- 51
2018-01-10 21:00:00 13.1 24 Sur 40 Sur 0 -- -- 51
2018-01-10 20:00:00 11.9 12 Sur 17 Sur 0 -- -- 54
2018-01-10 19:00:00 11.7 7 Sudoeste 22 Oeste 0 -- -- 59
2018-01-10 18:00:00 13.7 3 Nordeste 11 Nordeste 0 -- -- 62
2018-01-10 17:00:00 16.8 6 Nordeste 12 Norte 0 -- -- 46
2018-01-10 16:00:00 17.7 4 Nordeste 14 Este 0 -- -- 48
2018-01-10 15:00:00 17 8 Nordeste 13 Nordeste 0 -- -- 53
2018-01-10 14:00:00 14.5 4 Nordeste 11 Nordeste 0 -- -- 68
2018-01-10 13:00:00 14.1 6 Nordeste 11 Norte 0 -- -- 66
2018-01-10 12:00:00 12 3 Nordeste 10 Nordeste 0 -- -- 73
2018-01-10 11:00:00 9.8 4 Nordeste 10 Norte 0 -- -- 87
2018-01-10 10:00:00 7.3 6 Este 11 Este 0 -- -- 100
2018-01-10 09:00:00 5.8 3 Nordeste 6 Noroeste 0 -- -- 99
2018-01-10 08:00:00 6.2 4 Nordeste 5 Nordeste 0 -- -- 99
2018-01-10 07:00:00 6.4 0 Calma 8 Este 0 -- -- 99
2018-01-10 06:00:00 6.5 3 Este 7 Nordeste 0.8 -- -- 99
2018-01-10 05:00:00 6.5 2 Nordeste 10 Este 0.6 -- -- 98
2018-01-10 04:00:00 6.7 4 Nordeste 6 Este 0.4 -- -- 96
2018-01-10 03:00:00 7.1 4 Este 9 Este 0.6 -- -- 94
2018-01-10 02:00:00 6.8 4 Sudeste 5 Sudeste 0.6 -- -- 92
2018-01-10 01:00:00 7.1 0 Calma 4 Sur 0 -- -- 86
2018-01-10 00:00:00 7 0 Calma 6 Sudoeste 0 -- -- 85
2018-01-09 23:00:00 6.7 0 Calma 4 Este 0 -- -- 87
2018-01-09 22:00:00 5.6 0 Calma 3 Noroeste 0 -- -- 86
2018-01-09 21:00:00 6.2 0 Calma 4 Sur 0 -- -- 82
2018-01-09 20:00:00 7.6 0 Calma 6 Este 0 -- -- 76
2018-01-09 19:00:00 9 5 Nordeste 8 Nordeste 0 -- -- 69
2018-01-09 18:00:00 10.2 6 Este 15 Sudeste 0 -- -- 61
2018-01-09 17:00:00 12.5 8 Sudeste 20 Sur 0 -- -- 53
2018-01-09 16:00:00 13.3 8 Sur 18 Sur 0 -- -- 52
2018-01-09 15:00:00 14.3 9 Sur 21 Sudoeste 0 -- -- 47
2018-01-09 14:00:00 14 11 Sudoeste 19 Sudoeste 0 -- -- 46
2018-01-09 13:00:00 12.8 4 Oeste 10 Oeste 0 -- -- 51
2018-01-09 12:00:00 10.6 0 Calma 8 Sudoeste 0 -- -- 55
2018-01-09 11:00:00 7.4 4 Oeste 8 Sudoeste 0 -- -- 70
2018-01-09 10:00:00 3.4 3 Sudoeste 6 Sur 0 -- -- 90
2018-01-09 09:00:00 0.1 3 Sur 9 Sur 0 -- -- 96
2018-01-09 08:00:00 -0.7 4 Sudoeste 8 Sur 0 -- -- 94
2018-01-09 07:00:00 0.6 3 Sudoeste 10 Sur 0 -- -- 92
2018-01-09 06:00:00 2.4 7 Sudoeste 13 Este 0 -- -- 84
2018-01-09 05:00:00 2.7 8 Nordeste 9 Este 0 -- -- 97
2018-01-09 04:00:00 0.1 0 Calma 8 Sudoeste 0 -- -- 97
2018-01-09 03:00:00 0.6 8 Sur 10 Sur 0 -- -- 97
2018-01-09 02:00:00 1 3 Sudoeste 6 Sur 0 -- -- 95
2018-01-09 01:00:00 2.1 2 Sur 6 Sur 0 -- -- 95
2018-01-09 00:00:00 2 5 Sur 8 Sudoeste 0 -- -- 93
2018-01-08 23:00:00 2.4 6 Sudoeste 7 Sudoeste 0 -- -- 91
2018-01-08 22:00:00 4 3 Oeste 13 Sudoeste 0 -- -- 83
2018-01-08 21:00:00 4.5 5 Sudoeste 10 Sudoeste 0 -- -- 84
2018-01-08 20:00:00 5.2 10 Sur 13 Sur 0 -- -- 79
2018-01-08 19:00:00 6.3 2 Este 10 Sudeste 0 -- -- 77
2018-01-08 18:00:00 9.7 8 Sur 14 Sudoeste 0 -- -- 61
2018-01-08 17:00:00 12.4 6 Sudoeste 14 Sudoeste 0 -- -- 46
2018-01-08 16:00:00 13.7 7 Sudoeste 16 Sudoeste 0 -- -- 41
2018-01-08 15:00:00 13.8 7 Sudoeste 13 Sudoeste 0 -- -- 40
2018-01-08 14:00:00 13 3 Sur 11 Nordeste 0 -- -- 48
2018-01-08 13:00:00 10.7 5 Norte 12 Norte 0 -- -- 54
2018-01-08 12:00:00 9.6 5 Nordeste 13 Norte 0 -- -- 60
2018-01-08 11:00:00 7 5 Nordeste 10 Nordeste 0 -- -- 75
2018-01-08 10:00:00 2 3 Nordeste 7 Este 0 -- -- 95
2018-01-08 09:00:00 0 2 Sur 6 Sudoeste 0 -- -- 95
2018-01-08 08:00:00 0.8 2 Sudoeste 8 Nordeste 0 -- -- 91
2018-01-08 07:00:00 1.9 3 Nordeste 10 Este 0 -- -- 93
2018-01-08 06:00:00 0.4 3 Norte 7 Este 0 -- -- 95
2018-01-08 05:00:00 -0.3 3 Nordeste 7 Sudoeste 0 -- -- 97
2018-01-08 04:00:00 -0.1 3 Sudoeste 7 Sur 0 -- -- 96
2018-01-08 03:00:00 0.3 3 Sudoeste 7 Sudoeste 0 -- -- 95
2018-01-08 02:00:00 1 0 Calma 4 Sudoeste 0 -- -- 94
2018-01-08 01:00:00 1.7 6 Sur 10 Sur 0 -- -- 94
2018-01-08 00:00:00 2.8 2 Oeste 7 Sur 0 -- -- 90
2018-01-07 23:00:00 4.2 0 Calma 10 Sur 0 -- -- 84
2018-01-07 22:00:00 4.9 10 Sur 13 Sur 0 -- -- 80
2018-01-07 21:00:00 6.1 6 Sudoeste 23 Sur 0 -- -- 77
2018-01-07 20:00:00 9.2 15 Sur 30 Sudeste 0 -- -- 67
2018-01-07 19:00:00 9.5 9 Sur 24 Sur 0 -- -- 61
2018-01-07 18:00:00 10.6 15 Sur 30 Sur 0 -- -- 53
2018-01-07 17:00:00 11.4 13 Sur 33 Sudeste 0 -- -- 50
2018-01-07 16:00:00 11.6 15 Sur 32 Sur 0 -- -- 46
2018-01-07 15:00:00 13.1 15 Sur 31 Sur 0 -- -- 38
2018-01-07 14:00:00 12.5 5 Nordeste 15 Nordeste 0 -- -- 46
2018-01-07 13:00:00 11.4 8 Norte 14 Norte 0 -- -- 52
2018-01-07 12:00:00 11.5 5 Sur 12 Sudoeste 0 -- -- 47
2018-01-07 11:00:00 9.4 6 Sudoeste 23 Sur 0 -- -- 56
2018-01-07 10:00:00 5.5 12 Sur 24 Sudeste 0 -- -- 76
2018-01-07 09:00:00 1.6 3 Sur 6 Norte 0 -- -- 96
2018-01-07 08:00:00 1.8 3 Este 8 Norte 0 -- -- 95
2018-01-07 07:00:00 2.8 7 Este 10 Sudeste 0 -- -- 94
2018-01-07 06:00:00 3.4 5 Este 10 Este 0 -- -- 92
2018-01-07 05:00:00 5.4 9 Sudeste 14 Sudeste 0 -- -- 84
2018-01-07 04:00:00 6.4 5 Sur 12 Sur 0.4 -- -- 86
2018-01-07 03:00:00 6.9 9 Sur 28 Sur 0 -- -- 80
2018-01-07 02:00:00 4.9 5 Sudoeste 10 Sudoeste 0 -- -- 93
2018-01-07 01:00:00 4.7 0 Calma 5 Este 0 -- -- 89
2018-01-07 00:00:00 5.1 0 Calma 9 Sur 0 -- -- 85
2018-01-06 23:00:00 6.2 3 Nordeste 9 Nordeste 0 -- -- 81
2018-01-06 22:00:00 8.4 8 Este 23 Nordeste 0 -- -- 64
2018-01-06 21:00:00 8.6 14 Nordeste 26 Este 0 -- -- 75
2018-01-06 20:00:00 9.8 14 Nordeste 26 Este 0.2 -- -- 74
2018-01-06 19:00:00 9.8 10 Sudeste 32 Sur 0.2 -- -- 76
2018-01-06 18:00:00 11.4 22 Sur 45 Sur 0 -- -- 78
2018-01-06 17:00:00 12.7 24 Sur 44 Sur 0 -- -- 71
2018-01-06 16:00:00 13.4 20 Sudoeste 46 Sur 0 -- -- 71
2018-01-06 15:00:00 13.4 18 Sur 40 Sur 1.2 -- -- 81
2018-01-06 14:00:00 12.6 6 Nordeste 10 Norte 0 -- -- 76
2018-01-06 13:00:00 11.9 5 Nordeste 10 Este 0 -- -- 77
2018-01-06 12:00:00 9.6 3 Nordeste 13 Nordeste 0 -- -- 79
2018-01-06 11:00:00 7.3 0 Calma 4 Norte 0 -- -- 92
2018-01-06 10:00:00 5 0 Calma 5 Sur 0 -- -- 98
2018-01-06 09:00:00 3.2 2 Sudoeste 6 Sudoeste 0 -- -- 99
2018-01-06 08:00:00 3.1 3 Sudoeste 5 Sudoeste 0 -- -- 98
2018-01-06 07:00:00 3.7 3 Este 6 Este 0 -- -- 99
2018-01-06 06:00:00 3.3 0 Calma 5 Sudoeste 0 -- -- 98
2018-01-06 05:00:00 4 0 Calma 8 Sudoeste 0 -- -- 98
2018-01-06 04:00:00 4 2 Sur 5 Sudeste 0 -- -- 98
2018-01-06 03:00:00 4.7 2 Sudoeste 12 Sudoeste 0 -- -- 97
2018-01-06 02:00:00 4.9 3 Sudoeste 5 Sur 0 -- -- 96
2018-01-06 01:00:00 6 5 Sur 7 Sur 0 -- -- 96
2018-01-06 00:00:00 6.8 7 Sur 10 Sudoeste 0 -- -- 97
2018-01-05 23:00:00 7.4 5 Sur 8 Sur 0 -- -- 95
2018-01-05 22:00:00 8.5 3 Sur 8 Sudoeste 0 -- -- 94
2018-01-05 21:00:00 9.9 7 Sudoeste 17 Sudoeste 0 -- -- 88
2018-01-05 20:00:00 10.8 6 Sur 19 Oeste 0 -- -- 86
2018-01-05 19:00:00 12 8 Sudoeste 15 Sudoeste 0 -- -- 82
2018-01-05 18:00:00 14.7 10 Sudoeste 18 Sudoeste 0 -- -- 69
2018-01-05 17:00:00 18.7 8 Sudoeste 15 Sudoeste 0 -- -- 49
2018-01-05 16:00:00 19.8 4 Nordeste 14 Este 0 -- -- 37
2018-01-05 15:00:00 19.7 6 Este 14 Este 0 -- -- 38
2018-01-05 14:00:00 19.3 4 Este 11 Sudeste 0 -- -- 38
2018-01-05 13:00:00 17.7 6 Nordeste 13 Nordeste 0 -- -- 43
2018-01-05 12:00:00 16.7 6 Este 16 Nordeste 0 -- -- 47
2018-01-05 11:00:00 15.3 9 Nordeste 20 Este 0 -- -- 51
2018-01-05 10:00:00 12.6 6 Nordeste 15 Este 0 -- -- 59
2018-01-05 09:00:00 11.8 9 Este 17 Este 0 -- -- 64
2018-01-05 08:00:00 11.8 7 Nordeste 16 Este 0 -- -- 65
2018-01-05 07:00:00 12 8 Este 20 Este 0 -- -- 66
2018-01-05 06:00:00 12.4 9 Nordeste 16 Nordeste 0 -- -- 65
2018-01-05 05:00:00 12.9 5 Norte 26 Norte 0 -- -- 64
2018-01-05 04:00:00 13 10 Nordeste 22 Nordeste 0 -- -- 65
2018-01-05 03:00:00 12.8 11 Nordeste 20 Nordeste 0 -- -- 68
2018-01-05 02:00:00 11 5 Nordeste 15 Nordeste 0 -- -- 77
2018-01-05 01:00:00 11.1 8 Nordeste 12 Este 0 -- -- 77
2018-01-05 00:00:00 11.9 6 Este 10 Nordeste 0 -- -- 75
2018-01-04 23:00:00 12 5 Este 12 Nordeste 0 -- -- 76
2018-01-04 22:00:00 12.3 6 Norte 15 Nordeste 0 -- -- 75
2018-01-04 21:00:00 13.1 11 Nordeste 15 Nordeste 0 -- -- 71
2018-01-04 20:00:00 14.9 9 Este 12 Nordeste 0 -- -- 64
2018-01-04 19:00:00 16.2 8 Nordeste 18 Este 0 -- -- 59
2018-01-04 18:00:00 19.5 11 Este 15 Nordeste 0 -- -- 48
2018-01-04 17:00:00 22.4 9 Nordeste 13 Nordeste 0 -- -- 41
2018-01-04 16:00:00 23.4 8 Este 17 Este 0 -- -- 38
2018-01-04 15:00:00 22.7 8 Nordeste 15 Norte 0 -- -- 39
2018-01-04 14:00:00 21.6 11 Nordeste 17 Nordeste 0 -- -- 44
2018-01-04 13:00:00 20.3 8 Nordeste 14 Nordeste 0 -- -- 47
2018-01-04 12:00:00 18.7 9 Nordeste 17 Nordeste 0 -- -- 51
2018-01-04 11:00:00 17.3 9 Nordeste 18 Nordeste 0 -- -- 57
2018-01-04 10:00:00 15 10 Este 26 Nordeste 0 -- -- 63
2018-01-04 09:00:00 14.2 14 Este 29 Este 0 -- -- 65
2018-01-04 08:00:00 14 8 Nordeste 19 Noroeste 0 -- -- 65
2018-01-04 07:00:00 13 5 Noroeste 17 Este 0 -- -- 68
2018-01-04 06:00:00 14.2 10 Este 24 Este 0 -- -- 64
2018-01-04 05:00:00 14.1 12 Nordeste 20 Este 0 -- -- 64
2018-01-04 04:00:00 13 10 Este 21 Nordeste 0 -- -- 71
2018-01-04 03:00:00 13.7 6 Norte 28 Nordeste 0 -- -- 68
2018-01-04 02:00:00 14.6 16 Nordeste 26 Norte 0 -- -- 65
2018-01-04 01:00:00 13.1 5 Nordeste 17 Noroeste 0 -- -- 73
2018-01-04 00:00:00 12.5 5 Norte 11 Norte 0 -- -- 76
2018-01-03 23:00:00 14.9 6 Norte 16 Norte 0 -- -- 66
2018-01-03 22:00:00 16.9 8 Nordeste 15 Nordeste 0 -- -- 57
2018-01-03 21:00:00 16.7 7 Nordeste 16 Nordeste 0 -- -- 59
2018-01-03 20:00:00 17.3 6 Nordeste 19 Este 0 -- -- 57
2018-01-03 19:00:00 17.3 12 Nordeste 17 Nordeste 0 -- -- 58
2018-01-03 18:00:00 19.3 9 Este 19 Nordeste 0 -- -- 52
2018-01-03 17:00:00 21.3 10 Nordeste 15 Norte 0 -- -- 45
2018-01-03 16:00:00 22.6 9 Norte 23 Norte 0 -- -- 40
2018-01-03 15:00:00 23 12 Nordeste 22 Norte 0 -- -- 40
2018-01-03 14:00:00 21.3 12 Norte 25 Norte 0 -- -- 43
2018-01-03 13:00:00 20 8 Nordeste 24 Nordeste 0 -- -- 46
2018-01-03 12:00:00 18.5 7 Nordeste 23 Norte 0 -- -- 50
2018-01-03 11:00:00 16.8 13 Norte 25 Noroeste 0 -- -- 54
2018-01-03 10:00:00 15.1 11 Norte 24 Norte 0 -- -- 58
2018-01-03 09:00:00 12.8 8 Nordeste 31 Nordeste 0 -- -- 67
2018-01-03 08:00:00 12.6 10 Nordeste 22 Nordeste 0 -- -- 68
2018-01-03 07:00:00 13.1 10 Este 22 Este 0 -- -- 65
2018-01-03 06:00:00 13.8 10 Norte 24 Nordeste 0 -- -- 60
2018-01-03 05:00:00 14.4 4 Oeste 17 Noroeste 0 -- -- 55
2018-01-03 04:00:00 13.6 3 Noroeste 15 Norte 0 -- -- 57
2018-01-03 03:00:00 14.6 5 Nordeste 16 Nordeste 0 -- -- 53
2018-01-03 02:00:00 14.5 6 Nordeste 19 Nordeste 0 -- -- 53
2018-01-03 01:00:00 14.3 10 Este 19 Este 0 -- -- 53
2018-01-03 00:00:00 14.3 8 Nordeste 18 Este 0 -- -- 55
2018-01-02 23:00:00 15.1 13 Este 17 Este 0 -- -- 54
2018-01-02 22:00:00 16 9 Este 18 Este 0 -- -- 51
2018-01-02 21:00:00 15.9 9 Nordeste 23 Norte 0 -- -- 51
2018-01-02 20:00:00 15.6 4 Este 20 Nordeste 0 -- -- 49
2018-01-02 19:00:00 15.6 6 Sudeste 17 Sudeste 0 -- -- 48
2018-01-02 18:00:00 16.6 7 Nordeste 14 Nordeste 0 -- -- 44
2018-01-02 17:00:00 19.1 9 Nordeste 22 Norte 0 -- -- 38
2018-01-02 16:00:00 21.1 13 Norte 27 Norte 0 -- -- 28
2018-01-02 15:00:00 20.8 10 Noroeste 24 Norte 0 -- -- 27
2018-01-02 14:00:00 19.5 12 Norte 25 Norte 0 -- -- 31
2018-01-02 13:00:00 17.7 15 Norte 26 Norte 0 -- -- 36
2018-01-02 12:00:00 16.4 11 Noroeste 22 Noroeste 0 -- -- 39
2018-01-02 11:00:00 14.4 11 Norte 25 Norte 0 -- -- 47
2018-01-02 10:00:00 12.1 12 Nordeste 26 Nordeste 0 -- -- 57
2018-01-02 09:00:00 9.6 8 Nordeste 20 Nordeste 0 -- -- 66
2018-01-02 08:00:00 10 9 Norte 17 Norte 0 -- -- 63
2018-01-02 07:00:00 6.4 4 Nordeste 6 Nordeste 0 -- -- 80
2018-01-02 06:00:00 7.9 2 Nordeste 6 Nordeste 0 -- -- 71
2018-01-02 05:00:00 7.7 4 Noroeste 19 Este 0 -- -- 62
2018-01-02 04:00:00 9.7 11 Este 19 Este 0 -- -- 49
2018-01-02 03:00:00 5.9 2 Sudeste 11 Oeste 0 -- -- 68
2018-01-02 02:00:00 5 4 Sudoeste 11 Sur 0 -- -- 77
2018-01-02 01:00:00 5.9 6 Sudoeste 10 Sur 0 -- -- 68
2018-01-02 00:00:00 7.1 2 Sur 9 Sudoeste 0 -- -- 59
2018-01-01 23:00:00 8 2 Sudeste 8 Este 0 -- -- 52
2018-01-01 22:00:00 9.4 3 Norte 13 Nordeste 0 -- -- 61
2018-01-01 21:00:00 9 4 Nordeste 12 Sur 0 -- -- 78
2018-01-01 20:00:00 9.5 7 Sur 13 Sur 0 -- -- 83
2018-01-01 19:00:00 11.9 9 Sudoeste 18 Oeste 0 -- -- 70
2018-01-01 18:00:00 14.7 10 Sudoeste 19 Sudoeste 0 -- -- 57
2018-01-01 17:00:00 18.4 7 Sur 25 Sur 0 -- -- 41
2018-01-01 16:00:00 19.8 15 Sur 27 Sudeste 0 -- -- 36
2018-01-01 15:00:00 19.9 10 Sudoeste 20 Sudoeste 0 -- -- 34
2018-01-01 14:00:00 18.9 5 Oeste 14 Oeste 0 -- -- 30
2018-01-01 13:00:00 16.8 2 Noroeste 8 Sur 0 -- -- 34
2018-01-01 12:00:00 15.1 3 Oeste 11 Oeste 0 -- -- 40
2018-01-01 11:00:00 12.8 2 Sur 8 Sur 0 -- -- 45
2018-01-01 10:00:00 9.9 2 Sur 5 Este 0 -- -- 59
2018-01-01 09:00:00 7.1 2 Nordeste 17 Nordeste 0 -- -- 70
2018-01-01 08:00:00 8.5 7 Nordeste 21 Este 0 -- -- 63
2018-01-01 07:00:00 9.9 9 Nordeste 20 Nordeste 0 -- -- 58
2018-01-01 06:00:00 10.4 8 Nordeste 13 Nordeste 0 -- -- 57
2018-01-01 05:00:00 11.3 7 Este 15 Nordeste 0 -- -- 56
2018-01-01 04:00:00 11.9 8 Nordeste 18 Nordeste 0 -- -- 55
2018-01-01 03:00:00 12.7 5 Norte 16 Noroeste 0 -- -- 53
2018-01-01 02:00:00 14.6 9 Noroeste 29 Noroeste 0 -- -- 45
2018-01-01 01:00:00 15.7 13 Noroeste 43 Norte 0 -- -- 41
2018-01-01 00:00:00 16.1 15 Norte 30 Norte 0 -- -- 52
2017-12-31 23:00:00 16.1 3 Noroeste 19 Sur 0 -- -- 50
2017-12-31 22:00:00 15.5 8 Sudoeste 18 Sur 0 -- -- 52
2017-12-31 21:00:00 16.5 5 Este 21 Este 0 -- -- 48
2017-12-31 20:00:00 17.3 7 Norte 23 Norte 0 -- -- 44
2017-12-31 19:00:00 16.1 7 Oeste 20 Norte 0 -- -- 54
2017-12-31 18:00:00 15.8 3 Nordeste 11 Norte 0 -- -- 56
2017-12-31 17:00:00 16 0 Calma 7 Sudoeste 0 -- -- 62
2017-12-31 16:00:00 16.8 3 Noroeste 4 Oeste 0 -- -- 56
2017-12-31 15:00:00 16.1 3 Sudoeste 9 Sudoeste 0 -- -- 59
2017-12-31 14:00:00 15.1 6 Sudoeste 11 Sur 0 -- -- 61
2017-12-31 13:00:00 14.1 4 Sur 9 Sur 0 -- -- 65
2017-12-31 12:00:00 12.8 6 Sudoeste 11 Sudoeste 0 -- -- 70
2017-12-31 11:00:00 11.4 4 Sudoeste 8 Sudoeste 0 -- -- 73
2017-12-31 10:00:00 8.2 0 Calma 5 Sudoeste 0 -- -- 86
2017-12-31 09:00:00 7.1 2 Sudoeste 4 Oeste 0 -- -- 94
2017-12-31 08:00:00 6.8 0 Calma 5 Sudoeste 0 -- -- 91
2017-12-31 07:00:00 8.8 4 Sur 15 Nordeste 0 -- -- 81
2017-12-31 06:00:00 12.2 11 Este 15 Nordeste 0 -- -- 72
2017-12-31 05:00:00 12.3 8 Nordeste 15 Este 0 -- -- 72
2017-12-31 04:00:00 12.8 12 Este 18 Este 0 -- -- 71
2017-12-31 03:00:00 13 9 Este 13 Este 0 -- -- 70
2017-12-31 02:00:00 12.8 5 Nordeste 19 Nordeste 0 -- -- 73
2017-12-31 01:00:00 11.2 7 Este 13 Este 0 -- -- 83